sensor_id;sensor_type;location;lat;lon;timestamp;P1;durP1;ratioP1;P2;durP2;ratioP2
69750;SDS011;57335;52.288;6.056;2022-08-11T00:01:52;6.90;;;3.00;;
69750;SDS011;57335;52.288;6.056;2022-08-11T00:04:21;8.30;;;3.50;;
69750;SDS011;57335;52.288;6.056;2022-08-11T00:06:49;8.98;;;3.90;;
69750;SDS011;57335;52.288;6.056;2022-08-11T00:09:19;7.80;;;3.60;;
69750;SDS011;57335;52.288;6.056;2022-08-11T00:11:48;8.52;;;3.58;;
69750;SDS011;57335;52.288;6.056;2022-08-11T00:14:19;9.32;;;4.10;;
69750;SDS011;57335;52.288;6.056;2022-08-11T00:17:07;10.27;;;3.58;;
69750;SDS011;57335;52.288;6.056;2022-08-11T00:19:58;8.38;;;3.70;;
69750;SDS011;57335;52.288;6.056;2022-08-11T00:22:42;8.85;;;4.00;;
69750;SDS011;57335;52.288;6.056;2022-08-11T00:25:10;9.57;;;4.10;;
69750;SDS011;57335;52.288;6.056;2022-08-11T00:27:39;9.82;;;4.50;;
69750;SDS011;57335;52.288;6.056;2022-08-11T00:30:07;10.70;;;4.15;;
69750;SDS011;57335;52.288;6.056;2022-08-11T00:32:36;8.60;;;3.70;;
69750;SDS011;57335;52.288;6.056;2022-08-11T00:35:05;8.75;;;3.70;;
69750;SDS011;57335;52.288;6.056;2022-08-11T00:37:55;9.15;;;4.20;;
69750;SDS011;57335;52.288;6.056;2022-08-11T00:40:32;8.43;;;3.70;;
69750;SDS011;57335;52.288;6.056;2022-08-11T01:14:24;10.98;;;5.53;;
69750;SDS011;57335;52.288;6.056;2022-08-11T01:17:08;11.50;;;5.55;;
69750;SDS011;57335;52.288;6.056;2022-08-11T01:26:12;9.57;;;4.68;;
69750;SDS011;57335;52.288;6.056;2022-08-11T01:34:55;9.13;;;4.32;;
69750;SDS011;57335;52.288;6.056;2022-08-11T01:45:49;10.85;;;5.68;;
69750;SDS011;57335;52.288;6.056;2022-08-11T01:48:41;11.55;;;4.80;;
69750;SDS011;57335;52.288;6.056;2022-08-11T01:51:19;13.32;;;5.72;;
69750;SDS011;57335;52.288;6.056;2022-08-11T01:53:50;10.95;;;5.47;;
69750;SDS011;57335;52.288;6.056;2022-08-11T01:56:26;11.70;;;5.70;;
69750;SDS011;57335;52.288;6.056;2022-08-11T01:59:28;13.57;;;5.80;;
69750;SDS011;57335;52.288;6.056;2022-08-11T02:10:33;9.73;;;4.60;;
69750;SDS011;57335;52.288;6.056;2022-08-11T02:16:30;10.23;;;5.07;;
69750;SDS011;57335;52.288;6.056;2022-08-11T02:19:02;11.25;;;5.00;;
69750;SDS011;57335;52.288;6.056;2022-08-11T02:21:40;11.57;;;5.38;;
69750;SDS011;57335;52.288;6.056;2022-08-11T02:24:13;11.02;;;5.45;;
69750;SDS011;57335;52.288;6.056;2022-08-11T02:26:58;10.85;;;5.63;;
69750;SDS011;57335;52.288;6.056;2022-08-11T02:29:36;11.45;;;6.22;;
69750;SDS011;57335;52.288;6.056;2022-08-11T02:32:12;12.50;;;6.20;;
69750;SDS011;57335;52.288;6.056;2022-08-11T02:40:33;10.60;;;5.50;;
69750;SDS011;57335;52.288;6.056;2022-08-11T02:46:28;12.35;;;6.13;;
69750;SDS011;57335;52.288;6.056;2022-08-11T02:51:34;12.25;;;5.53;;
69750;SDS011;57335;52.288;6.056;2022-08-11T03:00:04;11.48;;;5.57;;
69750;SDS011;57335;52.288;6.056;2022-08-11T03:05:20;12.50;;;5.80;;
69750;SDS011;57335;52.288;6.056;2022-08-11T03:13:34;11.40;;;5.72;;
69750;SDS011;57335;52.288;6.056;2022-08-11T03:16:11;13.52;;;7.07;;
69750;SDS011;57335;52.288;6.056;2022-08-11T03:21:23;10.70;;;5.25;;
69750;SDS011;57335;52.288;6.056;2022-08-11T03:26:48;11.65;;;5.97;;
69750;SDS011;57335;52.288;6.056;2022-08-11T03:29:36;11.77;;;5.85;;
69750;SDS011;57335;52.288;6.056;2022-08-11T03:32:19;11.95;;;6.55;;
69750;SDS011;57335;52.288;6.056;2022-08-11T03:34:52;10.07;;;5.22;;
69750;SDS011;57335;52.288;6.056;2022-08-11T03:42:42;13.02;;;6.18;;
69750;SDS011;57335;52.288;6.056;2022-08-11T03:45:27;11.43;;;5.45;;
69750;SDS011;57335;52.288;6.056;2022-08-11T03:51:22;9.80;;;4.78;;
69750;SDS011;57335;52.288;6.056;2022-08-11T03:54:19;15.05;;;7.60;;
69750;SDS011;57335;52.288;6.056;2022-08-11T04:02:48;13.65;;;6.85;;
69750;SDS011;57335;52.288;6.056;2022-08-11T04:05:48;11.13;;;6.05;;
69750;SDS011;57335;52.288;6.056;2022-08-11T04:25:20;13.10;;;6.10;;
69750;SDS011;57335;52.288;6.056;2022-08-11T04:28:33;10.85;;;5.60;;
69750;SDS011;57335;52.288;6.056;2022-08-11T04:40:03;10.77;;;5.55;;
69750;SDS011;57335;52.288;6.056;2022-08-11T04:51:31;13.60;;;6.70;;
69750;SDS011;57335;52.288;6.056;2022-08-11T04:57:11;12.27;;;5.00;;
69750;SDS011;57335;52.288;6.056;2022-08-11T05:02:35;9.55;;;5.00;;
69750;SDS011;57335;52.288;6.056;2022-08-11T05:14:29;14.15;;;7.28;;
69750;SDS011;57335;52.288;6.056;2022-08-11T05:17:09;18.23;;;8.88;;
69750;SDS011;57335;52.288;6.056;2022-08-11T05:19:43;14.60;;;6.88;;
69750;SDS011;57335;52.288;6.056;2022-08-11T05:24:43;11.75;;;6.13;;
69750;SDS011;57335;52.288;6.056;2022-08-11T05:27:13;14.75;;;7.65;;
69750;SDS011;57335;52.288;6.056;2022-08-11T05:29:45;16.45;;;9.45;;
69750;SDS011;57335;52.288;6.056;2022-08-11T05:32:17;17.08;;;9.68;;
69750;SDS011;57335;52.288;6.056;2022-08-11T05:34:45;17.10;;;9.05;;
69750;SDS011;57335;52.288;6.056;2022-08-11T05:37:21;16.23;;;9.18;;
69750;SDS011;57335;52.288;6.056;2022-08-11T05:39:56;13.30;;;7.03;;
69750;SDS011;57335;52.288;6.056;2022-08-11T05:42:31;14.48;;;7.38;;
69750;SDS011;57335;52.288;6.056;2022-08-11T05:45:10;13.35;;;6.72;;
69750;SDS011;57335;52.288;6.056;2022-08-11T05:47:41;10.88;;;6.05;;
69750;SDS011;57335;52.288;6.056;2022-08-11T05:50:11;10.57;;;5.72;;
69750;SDS011;57335;52.288;6.056;2022-08-11T05:52:43;10.73;;;5.10;;
69750;SDS011;57335;52.288;6.056;2022-08-11T05:55:14;9.55;;;5.13;;
69750;SDS011;57335;52.288;6.056;2022-08-11T05:57:41;9.95;;;5.35;;
69750;SDS011;57335;52.288;6.056;2022-08-11T06:00:17;10.88;;;5.13;;
69750;SDS011;57335;52.288;6.056;2022-08-11T06:02:48;10.07;;;5.50;;
69750;SDS011;57335;52.288;6.056;2022-08-11T06:05:18;9.57;;;4.97;;
69750;SDS011;57335;52.288;6.056;2022-08-11T06:07:45;11.60;;;5.45;;
69750;SDS011;57335;52.288;6.056;2022-08-11T06:10:24;10.35;;;5.28;;
69750;SDS011;57335;52.288;6.056;2022-08-11T06:12:53;10.02;;;5.53;;
69750;SDS011;57335;52.288;6.056;2022-08-11T06:15:22;10.18;;;5.22;;
69750;SDS011;57335;52.288;6.056;2022-08-11T06:17:50;8.30;;;5.40;;
69750;SDS011;57335;52.288;6.056;2022-08-11T06:20:17;10.23;;;5.35;;
69750;SDS011;57335;52.288;6.056;2022-08-11T06:22:45;10.70;;;5.90;;
69750;SDS011;57335;52.288;6.056;2022-08-11T06:25:20;10.45;;;5.35;;
69750;SDS011;57335;52.288;6.056;2022-08-11T06:27:47;9.75;;;5.30;;
69750;SDS011;57335;52.288;6.056;2022-08-11T06:30:28;11.93;;;5.68;;
69750;SDS011;57335;52.288;6.056;2022-08-11T06:32:58;10.55;;;5.30;;
69750;SDS011;57335;52.288;6.056;2022-08-11T06:38:22;8.52;;;5.35;;
69750;SDS011;57335;52.288;6.056;2022-08-11T06:41:06;9.70;;;5.80;;
69750;SDS011;57335;52.288;6.056;2022-08-11T06:44:09;8.98;;;4.97;;
69750;SDS011;57335;52.288;6.056;2022-08-11T06:46:43;10.35;;;5.40;;
69750;SDS011;57335;52.288;6.056;2022-08-11T06:49:20;13.93;;;5.32;;
69750;SDS011;57335;52.288;6.056;2022-08-11T06:51:48;10.45;;;5.50;;
69750;SDS011;57335;52.288;6.056;2022-08-11T06:54:15;9.02;;;5.30;;
69750;SDS011;57335;52.288;6.056;2022-08-11T06:56:42;9.57;;;5.03;;
69750;SDS011;57335;52.288;6.056;2022-08-11T06:59:11;10.75;;;5.15;;
69750;SDS011;57335;52.288;6.056;2022-08-11T07:01:56;8.60;;;4.50;;
69750;SDS011;57335;52.288;6.056;2022-08-11T07:04:48;7.78;;;4.60;;
69750;SDS011;57335;52.288;6.056;2022-08-11T07:07:45;8.55;;;4.50;;
69750;SDS011;57335;52.288;6.056;2022-08-11T07:13:55;7.63;;;4.20;;
69750;SDS011;57335;52.288;6.056;2022-08-11T07:19:03;8.43;;;4.03;;
69750;SDS011;57335;52.288;6.056;2022-08-11T07:21:32;9.77;;;3.88;;
69750;SDS011;57335;52.288;6.056;2022-08-11T07:24:22;7.82;;;3.97;;
69750;SDS011;57335;52.288;6.056;2022-08-11T07:27:13;10.38;;;3.83;;
69750;SDS011;57335;52.288;6.056;2022-08-11T07:29:43;7.20;;;3.60;;
69750;SDS011;57335;52.288;6.056;2022-08-11T07:32:18;7.78;;;3.65;;
69750;SDS011;57335;52.288;6.056;2022-08-11T07:34:54;8.88;;;3.58;;
69750;SDS011;57335;52.288;6.056;2022-08-11T07:37:24;8.52;;;3.90;;
69750;SDS011;57335;52.288;6.056;2022-08-11T07:39:52;6.78;;;3.38;;
69750;SDS011;57335;52.288;6.056;2022-08-11T07:42:20;7.32;;;3.00;;
69750;SDS011;57335;52.288;6.056;2022-08-11T07:44:51;6.40;;;3.15;;
69750;SDS011;57335;52.288;6.056;2022-08-11T07:47:18;7.55;;;3.17;;
69750;SDS011;57335;52.288;6.056;2022-08-11T07:49:46;6.40;;;3.10;;
69750;SDS011;57335;52.288;6.056;2022-08-11T07:52:15;6.28;;;2.90;;
69750;SDS011;57335;52.288;6.056;2022-08-11T07:54:42;6.95;;;3.20;;
69750;SDS011;57335;52.288;6.056;2022-08-11T07:57:16;6.28;;;2.88;;
69750;SDS011;57335;52.288;6.056;2022-08-11T08:00:03;7.88;;;3.10;;
69750;SDS011;57335;52.288;6.056;2022-08-11T08:02:30;5.82;;;2.80;;
69750;SDS011;57335;52.288;6.056;2022-08-11T08:04:58;6.55;;;3.00;;
69750;SDS011;57335;52.288;6.056;2022-08-11T08:07:24;7.03;;;3.08;;
69750;SDS011;57335;52.288;6.056;2022-08-11T08:09:53;6.85;;;2.80;;
69750;SDS011;57335;52.288;6.056;2022-08-11T08:12:20;6.10;;;2.50;;
69750;SDS011;57335;52.288;6.056;2022-08-11T08:14:51;4.38;;;2.15;;
69750;SDS011;57335;52.288;6.056;2022-08-11T08:17:20;7.75;;;2.72;;
69750;SDS011;57335;52.288;6.056;2022-08-11T08:19:47;7.07;;;2.60;;
69750;SDS011;57335;52.288;6.056;2022-08-11T08:22:15;6.60;;;2.35;;
69750;SDS011;57335;52.288;6.056;2022-08-11T08:25:04;5.68;;;2.30;;
69750;SDS011;57335;52.288;6.056;2022-08-11T08:27:32;5.70;;;2.35;;
69750;SDS011;57335;52.288;6.056;2022-08-11T08:30:01;6.35;;;2.10;;
69750;SDS011;57335;52.288;6.056;2022-08-11T08:32:29;5.60;;;2.25;;
69750;SDS011;57335;52.288;6.056;2022-08-11T08:34:57;5.30;;;2.50;;
69750;SDS011;57335;52.288;6.056;2022-08-11T08:37:25;4.70;;;2.13;;
69750;SDS011;57335;52.288;6.056;2022-08-11T08:40:13;6.90;;;2.35;;
69750;SDS011;57335;52.288;6.056;2022-08-11T08:42:48;7.38;;;2.50;;
69750;SDS011;57335;52.288;6.056;2022-08-11T08:45:17;8.13;;;2.40;;
69750;SDS011;57335;52.288;6.056;2022-08-11T08:47:46;6.05;;;2.40;;
69750;SDS011;57335;52.288;6.056;2022-08-11T08:50:19;4.13;;;2.05;;
69750;SDS011;57335;52.288;6.056;2022-08-11T08:53:02;5.20;;;2.35;;
69750;SDS011;57335;52.288;6.056;2022-08-11T08:55:31;5.65;;;2.42;;
69750;SDS011;57335;52.288;6.056;2022-08-11T08:57:58;4.65;;;2.10;;
69750;SDS011;57335;52.288;6.056;2022-08-11T09:00:36;7.53;;;2.50;;
69750;SDS011;57335;52.288;6.056;2022-08-11T09:03:05;4.75;;;2.10;;
69750;SDS011;57335;52.288;6.056;2022-08-11T09:05:55;7.40;;;2.13;;
69750;SDS011;57335;52.288;6.056;2022-08-11T09:08:22;6.15;;;2.40;;
69750;SDS011;57335;52.288;6.056;2022-08-11T09:10:49;5.90;;;2.30;;
69750;SDS011;57335;52.288;6.056;2022-08-11T09:13:16;6.45;;;2.42;;
69750;SDS011;57335;52.288;6.056;2022-08-11T09:15:43;6.50;;;2.28;;
69750;SDS011;57335;52.288;6.056;2022-08-11T09:18:10;4.95;;;2.35;;
69750;SDS011;57335;52.288;6.056;2022-08-11T09:20:37;6.65;;;2.30;;
69750;SDS011;57335;52.288;6.056;2022-08-11T09:23:05;6.07;;;2.45;;
69750;SDS011;57335;52.288;6.056;2022-08-11T09:25:57;6.13;;;2.22;;
69750;SDS011;57335;52.288;6.056;2022-08-11T09:28:26;5.22;;;2.40;;
69750;SDS011;57335;52.288;6.056;2022-08-11T09:30:54;4.70;;;2.13;;
69750;SDS011;57335;52.288;6.056;2022-08-11T09:33:23;5.65;;;2.80;;
69750;SDS011;57335;52.288;6.056;2022-08-11T09:35:50;7.65;;;2.65;;
69750;SDS011;57335;52.288;6.056;2022-08-11T09:38:18;5.90;;;2.60;;
69750;SDS011;57335;52.288;6.056;2022-08-11T09:40:48;5.60;;;2.60;;
69750;SDS011;57335;52.288;6.056;2022-08-11T09:43:38;4.97;;;2.33;;
69750;SDS011;57335;52.288;6.056;2022-08-11T09:46:06;5.43;;;2.60;;
69750;SDS011;57335;52.288;6.056;2022-08-11T09:48:35;6.82;;;2.70;;
69750;SDS011;57335;52.288;6.056;2022-08-11T09:51:05;5.88;;;2.58;;
69750;SDS011;57335;52.288;6.056;2022-08-11T09:53:34;7.95;;;2.70;;
69750;SDS011;57335;52.288;6.056;2022-08-11T09:56:09;5.13;;;2.40;;
69750;SDS011;57335;52.288;6.056;2022-08-11T09:58:41;6.60;;;2.30;;
69750;SDS011;57335;52.288;6.056;2022-08-11T10:01:09;6.05;;;2.67;;
69750;SDS011;57335;52.288;6.056;2022-08-11T10:03:38;5.65;;;2.50;;
69750;SDS011;57335;52.288;6.056;2022-08-11T10:06:07;6.28;;;2.30;;
69750;SDS011;57335;52.288;6.056;2022-08-11T10:08:37;5.20;;;2.25;;
69750;SDS011;57335;52.288;6.056;2022-08-11T10:11:06;5.93;;;2.33;;
69750;SDS011;57335;52.288;6.056;2022-08-11T10:13:36;4.85;;;2.45;;
69750;SDS011;57335;52.288;6.056;2022-08-11T10:16:28;8.32;;;2.85;;
69750;SDS011;57335;52.288;6.056;2022-08-11T10:18:55;8.63;;;2.40;;
69750;SDS011;57335;52.288;6.056;2022-08-11T10:24:02;5.20;;;2.25;;
69750;SDS011;57335;52.288;6.056;2022-08-11T10:26:31;4.80;;;2.30;;
69750;SDS011;57335;52.288;6.056;2022-08-11T10:28:59;6.00;;;2.30;;
69750;SDS011;57335;52.288;6.056;2022-08-11T10:31:39;6.53;;;2.22;;
69750;SDS011;57335;52.288;6.056;2022-08-11T10:34:23;5.95;;;2.28;;
69750;SDS011;57335;52.288;6.056;2022-08-11T10:36:52;4.43;;;2.13;;
69750;SDS011;57335;52.288;6.056;2022-08-11T10:39:19;4.50;;;2.30;;
69750;SDS011;57335;52.288;6.056;2022-08-11T10:41:47;4.68;;;2.25;;
69750;SDS011;57335;52.288;6.056;2022-08-11T10:44:39;5.55;;;2.17;;
69750;SDS011;57335;52.288;6.056;2022-08-11T10:47:09;5.85;;;2.22;;
69750;SDS011;57335;52.288;6.056;2022-08-11T10:49:37;4.85;;;2.33;;
69750;SDS011;57335;52.288;6.056;2022-08-11T10:52:05;4.82;;;2.03;;
69750;SDS011;57335;52.288;6.056;2022-08-11T10:54:32;4.35;;;1.75;;
69750;SDS011;57335;52.288;6.056;2022-08-11T10:56:59;4.93;;;2.20;;
69750;SDS011;57335;52.288;6.056;2022-08-11T10:59:27;5.13;;;2.13;;
69750;SDS011;57335;52.288;6.056;2022-08-11T11:01:54;6.65;;;2.30;;
69750;SDS011;57335;52.288;6.056;2022-08-11T11:07:15;5.60;;;2.10;;
69750;SDS011;57335;52.288;6.056;2022-08-11T11:09:46;5.22;;;2.08;;
69750;SDS011;57335;52.288;6.056;2022-08-11T11:12:28;4.97;;;2.20;;
69750;SDS011;57335;52.288;6.056;2022-08-11T11:14:58;6.00;;;2.10;;
69750;SDS011;57335;52.288;6.056;2022-08-11T11:17:36;5.40;;;1.80;;
69750;SDS011;57335;52.288;6.056;2022-08-11T11:20:06;3.50;;;1.70;;
69750;SDS011;57335;52.288;6.056;2022-08-11T11:22:55;4.07;;;1.90;;
69750;SDS011;57335;52.288;6.056;2022-08-11T11:31:12;5.22;;;1.90;;
69750;SDS011;57335;52.288;6.056;2022-08-11T11:36:46;4.05;;;1.88;;
69750;SDS011;57335;52.288;6.056;2022-08-11T11:39:21;7.03;;;2.22;;
69750;SDS011;57335;52.288;6.056;2022-08-11T11:41:51;4.63;;;2.00;;
69750;SDS011;57335;52.288;6.056;2022-08-11T11:44:19;4.15;;;1.90;;
69750;SDS011;57335;52.288;6.056;2022-08-11T11:46:47;4.68;;;2.00;;
69750;SDS011;57335;52.288;6.056;2022-08-11T11:49:19;6.85;;;2.20;;
69750;SDS011;57335;52.288;6.056;2022-08-11T11:51:49;3.83;;;1.90;;
69750;SDS011;57335;52.288;6.056;2022-08-11T11:54:21;4.40;;;2.08;;
69750;SDS011;57335;52.288;6.056;2022-08-11T11:56:50;4.43;;;2.08;;
69750;SDS011;57335;52.288;6.056;2022-08-11T11:59:19;5.22;;;2.10;;
69750;SDS011;57335;52.288;6.056;2022-08-11T12:01:46;6.85;;;2.30;;
69750;SDS011;57335;52.288;6.056;2022-08-11T12:04:16;5.95;;;2.28;;
69750;SDS011;57335;52.288;6.056;2022-08-11T12:06:45;6.60;;;2.38;;
69750;SDS011;57335;52.288;6.056;2022-08-11T12:09:12;4.13;;;2.17;;
69750;SDS011;57335;52.288;6.056;2022-08-11T12:11:39;4.47;;;2.13;;
69750;SDS011;57335;52.288;6.056;2022-08-11T12:14:09;6.20;;;2.30;;
69750;SDS011;57335;52.288;6.056;2022-08-11T12:16:38;6.13;;;2.60;;
69750;SDS011;57335;52.288;6.056;2022-08-11T12:19:09;6.85;;;2.22;;
69750;SDS011;57335;52.288;6.056;2022-08-11T12:21:38;5.43;;;2.22;;
69750;SDS011;57335;52.288;6.056;2022-08-11T12:24:16;6.32;;;2.38;;
69750;SDS011;57335;52.288;6.056;2022-08-11T12:26:42;4.28;;;2.10;;
69750;SDS011;57335;52.288;6.056;2022-08-11T12:29:30;5.97;;;2.40;;
69750;SDS011;57335;52.288;6.056;2022-08-11T12:31:58;7.45;;;2.22;;
69750;SDS011;57335;52.288;6.056;2022-08-11T12:34:25;4.60;;;2.10;;
69750;SDS011;57335;52.288;6.056;2022-08-11T12:36:57;4.30;;;2.22;;
69750;SDS011;57335;52.288;6.056;2022-08-11T12:39:26;4.13;;;2.03;;
69750;SDS011;57335;52.288;6.056;2022-08-11T12:42:18;4.43;;;2.28;;
69750;SDS011;57335;52.288;6.056;2022-08-11T12:44:46;4.43;;;2.15;;
69750;SDS011;57335;52.288;6.056;2022-08-11T12:47:18;5.30;;;2.30;;
69750;SDS011;57335;52.288;6.056;2022-08-11T12:49:49;5.05;;;2.42;;
69750;SDS011;57335;52.288;6.056;2022-08-11T12:52:24;5.07;;;2.20;;
69750;SDS011;57335;52.288;6.056;2022-08-11T12:55:02;4.10;;;2.10;;
69750;SDS011;57335;52.288;6.056;2022-08-11T12:57:37;13.18;;;7.78;;
69750;SDS011;57335;52.288;6.056;2022-08-11T13:00:07;4.32;;;2.00;;
69750;SDS011;57335;52.288;6.056;2022-08-11T13:02:35;4.00;;;2.00;;
69750;SDS011;57335;52.288;6.056;2022-08-11T13:05:07;5.78;;;2.15;;
69750;SDS011;57335;52.288;6.056;2022-08-11T13:07:41;5.13;;;2.03;;
69750;SDS011;57335;52.288;6.056;2022-08-11T13:10:16;6.13;;;2.25;;
69750;SDS011;57335;52.288;6.056;2022-08-11T13:12:45;4.88;;;2.22;;
69750;SDS011;57335;52.288;6.056;2022-08-11T13:15:13;6.10;;;2.20;;
69750;SDS011;57335;52.288;6.056;2022-08-11T13:17:42;4.75;;;2.03;;
69750;SDS011;57335;52.288;6.056;2022-08-11T13:20:10;5.63;;;2.30;;
69750;SDS011;57335;52.288;6.056;2022-08-11T13:22:38;4.97;;;2.20;;
69750;SDS011;57335;52.288;6.056;2022-08-11T13:25:07;4.68;;;2.13;;
69750;SDS011;57335;52.288;6.056;2022-08-11T13:27:40;7.25;;;2.17;;
69750;SDS011;57335;52.288;6.056;2022-08-11T13:30:08;6.63;;;2.40;;
69750;SDS011;57335;52.288;6.056;2022-08-11T13:32:35;5.57;;;2.28;;
69750;SDS011;57335;52.288;6.056;2022-08-11T13:35:02;4.63;;;2.10;;
69750;SDS011;57335;52.288;6.056;2022-08-11T13:37:33;3.85;;;2.08;;
69750;SDS011;57335;52.288;6.056;2022-08-11T13:40:20;4.40;;;2.15;;
69750;SDS011;57335;52.288;6.056;2022-08-11T13:43:08;6.13;;;2.20;;
69750;SDS011;57335;52.288;6.056;2022-08-11T13:45:35;4.40;;;2.08;;
69750;SDS011;57335;52.288;6.056;2022-08-11T13:48:04;4.13;;;2.03;;
69750;SDS011;57335;52.288;6.056;2022-08-11T13:50:33;4.75;;;2.25;;
69750;SDS011;57335;52.288;6.056;2022-08-11T13:53:02;4.90;;;2.25;;
69750;SDS011;57335;52.288;6.056;2022-08-11T13:55:28;5.40;;;2.20;;
69750;SDS011;57335;52.288;6.056;2022-08-11T13:58:16;5.38;;;2.03;;
69750;SDS011;57335;52.288;6.056;2022-08-11T14:01:02;4.60;;;1.80;;
69750;SDS011;57335;52.288;6.056;2022-08-11T14:03:51;4.95;;;1.92;;
69750;SDS011;57335;52.288;6.056;2022-08-11T14:06:43;4.10;;;1.75;;
69750;SDS011;57335;52.288;6.056;2022-08-11T14:09:16;3.85;;;1.75;;
69750;SDS011;57335;52.288;6.056;2022-08-11T14:11:50;4.15;;;2.10;;
69750;SDS011;57335;52.288;6.056;2022-08-11T14:14:38;5.13;;;2.40;;
69750;SDS011;57335;52.288;6.056;2022-08-11T14:17:05;5.13;;;2.03;;
69750;SDS011;57335;52.288;6.056;2022-08-11T14:19:33;5.75;;;1.90;;
69750;SDS011;57335;52.288;6.056;2022-08-11T14:22:01;6.50;;;2.20;;
69750;SDS011;57335;52.288;6.056;2022-08-11T14:24:34;4.93;;;1.75;;
69750;SDS011;57335;52.288;6.056;2022-08-11T14:27:03;4.68;;;1.67;;
69750;SDS011;57335;52.288;6.056;2022-08-11T14:29:31;4.38;;;1.80;;
69750;SDS011;57335;52.288;6.056;2022-08-11T14:32:13;3.97;;;1.70;;
69750;SDS011;57335;52.288;6.056;2022-08-11T14:34:40;4.80;;;1.70;;
69750;SDS011;57335;52.288;6.056;2022-08-11T14:37:09;6.65;;;2.00;;
69750;SDS011;57335;52.288;6.056;2022-08-11T14:39:46;4.70;;;2.00;;
69750;SDS011;57335;52.288;6.056;2022-08-11T14:42:28;4.47;;;1.80;;
69750;SDS011;57335;52.288;6.056;2022-08-11T14:44:55;4.70;;;2.08;;
69750;SDS011;57335;52.288;6.056;2022-08-11T14:47:31;3.40;;;1.80;;
69750;SDS011;57335;52.288;6.056;2022-08-11T14:50:00;4.43;;;2.00;;
69750;SDS011;57335;52.288;6.056;2022-08-11T14:52:59;3.88;;;1.90;;
69750;SDS011;57335;52.288;6.056;2022-08-11T14:55:26;3.78;;;1.83;;
69750;SDS011;57335;52.288;6.056;2022-08-11T14:57:54;4.28;;;1.80;;
69750;SDS011;57335;52.288;6.056;2022-08-11T15:00:22;5.78;;;1.95;;
69750;SDS011;57335;52.288;6.056;2022-08-11T15:02:49;3.53;;;1.80;;
69750;SDS011;57335;52.288;6.056;2022-08-11T15:05:16;4.18;;;1.88;;
69750;SDS011;57335;52.288;6.056;2022-08-11T15:07:44;3.45;;;1.58;;
69750;SDS011;57335;52.288;6.056;2022-08-11T15:10:11;4.00;;;1.90;;
69750;SDS011;57335;52.288;6.056;2022-08-11T15:12:39;4.32;;;1.83;;
69750;SDS011;57335;52.288;6.056;2022-08-11T15:15:06;4.95;;;1.70;;
69750;SDS011;57335;52.288;6.056;2022-08-11T15:17:34;3.95;;;1.92;;
69750;SDS011;57335;52.288;6.056;2022-08-11T15:20:11;7.28;;;2.10;;
69750;SDS011;57335;52.288;6.056;2022-08-11T15:22:40;3.85;;;1.90;;
69750;SDS011;57335;52.288;6.056;2022-08-11T15:25:06;4.28;;;1.80;;
69750;SDS011;57335;52.288;6.056;2022-08-11T15:27:33;5.47;;;1.95;;
69750;SDS011;57335;52.288;6.056;2022-08-11T15:30:01;5.05;;;1.88;;
69750;SDS011;57335;52.288;6.056;2022-08-11T15:32:29;4.90;;;2.10;;
69750;SDS011;57335;52.288;6.056;2022-08-11T15:34:58;3.80;;;1.55;;
69750;SDS011;57335;52.288;6.056;2022-08-11T15:40:04;5.63;;;1.70;;
69750;SDS011;57335;52.288;6.056;2022-08-11T15:42:31;5.07;;;1.90;;
69750;SDS011;57335;52.288;6.056;2022-08-11T15:45:01;3.63;;;1.67;;
69750;SDS011;57335;52.288;6.056;2022-08-11T15:47:47;4.00;;;1.70;;
69750;SDS011;57335;52.288;6.056;2022-08-11T15:50:18;4.25;;;1.73;;
69750;SDS011;57335;52.288;6.056;2022-08-11T15:53:32;3.65;;;1.70;;
69750;SDS011;57335;52.288;6.056;2022-08-11T15:55:34;7.22;;;1.50;;
69750;SDS011;57335;52.288;6.056;2022-08-11T15:58:03;4.55;;;1.70;;
69750;SDS011;57335;52.288;6.056;2022-08-11T16:00:34;3.60;;;1.60;;
69750;SDS011;57335;52.288;6.056;2022-08-11T16:03:03;3.88;;;1.70;;
69750;SDS011;57335;52.288;6.056;2022-08-11T16:05:38;3.17;;;1.60;;
69750;SDS011;57335;52.288;6.056;2022-08-11T16:08:12;4.50;;;1.70;;
69750;SDS011;57335;52.288;6.056;2022-08-11T16:10:51;4.57;;;1.63;;
69750;SDS011;57335;52.288;6.056;2022-08-11T16:13:19;3.63;;;1.70;;
69750;SDS011;57335;52.288;6.056;2022-08-11T16:15:51;4.47;;;1.60;;
69750;SDS011;57335;52.288;6.056;2022-08-11T16:18:21;5.10;;;1.70;;
69750;SDS011;57335;52.288;6.056;2022-08-11T16:20:52;4.47;;;1.63;;
69750;SDS011;57335;52.288;6.056;2022-08-11T16:23:20;3.50;;;1.65;;
69750;SDS011;57335;52.288;6.056;2022-08-11T16:25:48;4.05;;;1.55;;
69750;SDS011;57335;52.288;6.056;2022-08-11T16:28:35;3.38;;;1.42;;
69750;SDS011;57335;52.288;6.056;2022-08-11T16:31:05;3.60;;;1.65;;
69750;SDS011;57335;52.288;6.056;2022-08-11T16:33:32;3.28;;;1.63;;
69750;SDS011;57335;52.288;6.056;2022-08-11T16:36:16;5.00;;;1.55;;
69750;SDS011;57335;52.288;6.056;2022-08-11T16:38:45;3.28;;;1.48;;
69750;SDS011;57335;52.288;6.056;2022-08-11T16:41:15;3.63;;;1.42;;
69750;SDS011;57335;52.288;6.056;2022-08-11T16:43:44;2.70;;;1.40;;
69750;SDS011;57335;52.288;6.056;2022-08-11T16:46:13;4.80;;;1.73;;
69750;SDS011;57335;52.288;6.056;2022-08-11T16:48:42;4.22;;;1.67;;
69750;SDS011;57335;52.288;6.056;2022-08-11T16:51:13;4.63;;;1.60;;
69750;SDS011;57335;52.288;6.056;2022-08-11T16:53:43;4.03;;;1.60;;
69750;SDS011;57335;52.288;6.056;2022-08-11T16:56:33;4.72;;;1.60;;
69750;SDS011;57335;52.288;6.056;2022-08-11T16:59:08;4.50;;;1.75;;
69750;SDS011;57335;52.288;6.056;2022-08-11T17:02:01;4.00;;;1.60;;
69750;SDS011;57335;52.288;6.056;2022-08-11T17:04:37;4.43;;;1.60;;
69750;SDS011;57335;52.288;6.056;2022-08-11T17:07:07;4.63;;;1.70;;
69750;SDS011;57335;52.288;6.056;2022-08-11T17:09:56;3.38;;;1.65;;
69750;SDS011;57335;52.288;6.056;2022-08-11T17:12:25;4.75;;;1.60;;
69750;SDS011;57335;52.288;6.056;2022-08-11T17:14:57;3.45;;;1.60;;
69750;SDS011;57335;52.288;6.056;2022-08-11T17:17:27;3.63;;;1.45;;
69750;SDS011;57335;52.288;6.056;2022-08-11T17:20:00;4.75;;;1.70;;
69750;SDS011;57335;52.288;6.056;2022-08-11T17:22:49;4.72;;;1.67;;
69750;SDS011;57335;52.288;6.056;2022-08-11T17:25:18;4.68;;;1.60;;
69750;SDS011;57335;52.288;6.056;2022-08-11T17:27:47;5.15;;;1.70;;
69750;SDS011;57335;52.288;6.056;2022-08-11T17:30:15;3.90;;;1.60;;
69750;SDS011;57335;52.288;6.056;2022-08-11T17:32:44;4.13;;;1.60;;
69750;SDS011;57335;52.288;6.056;2022-08-11T17:35:27;5.38;;;1.50;;
69750;SDS011;57335;52.288;6.056;2022-08-11T17:38:16;4.53;;;1.60;;
69750;SDS011;57335;52.288;6.056;2022-08-11T17:40:47;3.80;;;1.60;;
69750;SDS011;57335;52.288;6.056;2022-08-11T17:43:17;3.80;;;1.60;;
69750;SDS011;57335;52.288;6.056;2022-08-11T17:45:44;3.45;;;1.50;;
69750;SDS011;57335;52.288;6.056;2022-08-11T17:48:12;4.07;;;1.70;;
69750;SDS011;57335;52.288;6.056;2022-08-11T17:50:40;2.88;;;1.40;;
69750;SDS011;57335;52.288;6.056;2022-08-11T17:53:07;2.15;;;1.30;;
69750;SDS011;57335;52.288;6.056;2022-08-11T17:55:36;4.35;;;1.60;;
69750;SDS011;57335;52.288;6.056;2022-08-11T17:58:18;3.70;;;1.50;;
69750;SDS011;57335;52.288;6.056;2022-08-11T18:00:47;3.65;;;1.50;;
69750;SDS011;57335;52.288;6.056;2022-08-11T18:03:15;3.95;;;1.45;;
69750;SDS011;57335;52.288;6.056;2022-08-11T18:05:43;3.08;;;1.50;;
69750;SDS011;57335;52.288;6.056;2022-08-11T18:08:11;4.22;;;1.40;;
69750;SDS011;57335;52.288;6.056;2022-08-11T18:10:39;4.32;;;1.42;;
69750;SDS011;57335;52.288;6.056;2022-08-11T18:13:07;4.95;;;1.60;;
69750;SDS011;57335;52.288;6.056;2022-08-11T18:15:38;3.92;;;1.50;;
69750;SDS011;57335;52.288;6.056;2022-08-11T18:18:21;5.43;;;1.60;;
69750;SDS011;57335;52.288;6.056;2022-08-11T18:20:47;5.20;;;1.77;;
69750;SDS011;57335;52.288;6.056;2022-08-11T18:23:18;5.88;;;1.75;;
69750;SDS011;57335;52.288;6.056;2022-08-11T18:26:07;5.05;;;1.83;;
69750;SDS011;57335;52.288;6.056;2022-08-11T18:28:40;2.63;;;1.48;;
69750;SDS011;57335;52.288;6.056;2022-08-11T18:31:10;2.92;;;1.33;;